WetterOnline ( https://www.wetteronline.de )

Wetter aktuell St. Peter-Ording

Aktuelles Wetter: St. Peter-Ording (11m)

6-stündlich | Neueste Meldungen
Ortszeit Temperatur Wetter
Sa, 28.11. 13:00 3.2° C leicht bewölkt
Sa, 28.11. 7:00 -0.9° C wolkenlos
Sa, 28.11. 1:00 0.6° C Nebel
Fr, 27.11. 19:00 2.0° C wolkenlos
Fr, 27.11. 13:00 6.2° C wolkenlos
Fr, 27.11. 7:00 2.8° C wolkig
Fr, 27.11. 1:00 3.9° C fast wolkenlos
Do, 26.11. 19:00 6.5° C leicht bewölkt
Ortszeit Temperatur Wetter
Sa, 28.11. 15:30 2.5° C bedeckt
Sa, 28.11. 15:20 2.5° C bedeckt
Sa, 28.11. 15:10 2.5° C bewölkt
Sa, 28.11. 15:00 2.6° C leicht bewölkt
Sa, 28.11. 14:50 2.6° C leicht bewölkt
Sa, 28.11. 14:40 2.6° C wolkenlos
Sa, 28.11. 14:30 2.8° C fast wolkenlos
Sa, 28.11. 14:00 2.7° C wolkig
Sa, 28.11. 13:30 3.1° C bewölkt
Sa, 28.11. 13:00 3.2° C leicht bewölkt
Sa, 28.11. 12:30 3.0° C wolkenlos
Ortszeit Relative Feuchte Sichtweite
Sa, 28.11. 13:00 89% 23 km
Sa, 28.11. 7:00 99% 8 km
Sa, 28.11. 1:00 99% 0.3 km
Fr, 27.11. 19:00 100% 4.6 km
Fr, 27.11. 13:00 89% 35 km
Fr, 27.11. 7:00 99% 1.8 km
Fr, 27.11. 1:00 99% 30 km
Do, 26.11. 19:00 94% 18 km
Ortszeit Relative Feuchte Sichtweite
Sa, 28.11. 15:30 87% 27 km
Sa, 28.11. 15:20 87% -
Sa, 28.11. 15:10 87% -
Sa, 28.11. 15:00 88% 23 km
Sa, 28.11. 14:50 88% -
Sa, 28.11. 14:40 87% -
Sa, 28.11. 14:30 88% 26 km
Sa, 28.11. 14:00 89% 24 km
Sa, 28.11. 13:30 89% 19 km
Sa, 28.11. 13:00 89% 23 km
Sa, 28.11. 12:30 89% 22 km
Ortszeit Niederschlagsmenge Niederschlagsart
Sa, 28.11. 13:00 0.0 l/m2 in 6 Std. -
Sa, 28.11. 7:00 0.0 l/m2 in 12 Std. -
Sa, 28.11. 1:00 0.0 l/m2 in 6 Std. -
Fr, 27.11. 19:00 0.0 l/m2 in 12 Std. -
Fr, 27.11. 13:00 0.0 l/m2 in 6 Std. -
Fr, 27.11. 7:00 0.0 l/m2 in 12 Std. -
Fr, 27.11. 1:00 0.0 l/m2 in 6 Std. -
Do, 26.11. 19:00 0.1 l/m2 in 12 Std. -
Ortszeit Niederschlagsmenge Niederschlagsart
Sa, 28.11. 15:30 0.0 l/m2 in 1 Std. -
Sa, 28.11. 15:20 keine Meldung -
Sa, 28.11. 15:10 keine Meldung -
Sa, 28.11. 15:00 0.0 l/m2 in 1 Std. -
Sa, 28.11. 14:50 keine Meldung -
Sa, 28.11. 14:40 keine Meldung -
Sa, 28.11. 14:30 0.0 l/m2 in 1 Std. -
Sa, 28.11. 14:00 0.0 l/m2 in 1 Std. -
Sa, 28.11. 13:30 0.0 l/m2 in 1 Std. -
Sa, 28.11. 13:00 0.0 l/m2 in 1 Std. -
Sa, 28.11. 12:30 0.0 l/m2 in 1 Std. -
Ortszeit Stärke Spitze Richtung
km/h Bft. km/h Grad Sektor
Sa, 28.11. 13:00 18 3 29 120° SO
Sa, 28.11. 7:00 11 2 14 90° O
Sa, 28.11. 1:00 11 2 14 110° O
Fr, 27.11. 19:00 9 2 15 100° O
Fr, 27.11. 13:00 11 2 14 110° O
Fr, 27.11. 7:00 7 2 11 130° SO
Fr, 27.11. 1:00 6 1 15 240° SW
Do, 26.11. 19:00 9 2 19 260° W
Ortszeit Stärke Spitze Richtung
km/h Bft. km/h Grad Sektor
Sa, 28.11. 15:30 24 4 39 110° O
Sa, 28.11. 15:20 24 4 - 110° O
Sa, 28.11. 15:10 26 4 - 110° O
Sa, 28.11. 15:00 18 3 29 100° O
Sa, 28.11. 14:50 18 3 - 100° O
Sa, 28.11. 14:40 18 3 - 110° O
Sa, 28.11. 14:30 19 3 28 100° O
Sa, 28.11. 14:00 18 3 29 110° O
Sa, 28.11. 13:30 18 3 29 120° SO
Sa, 28.11. 13:00 18 3 29 120° SO
Sa, 28.11. 12:30 14 3 22 120° SO
Ortszeit Untergrenze Bedeckung Gattung
total tief tief mittel hoch
Sa, 28.11. 13:00 240 m 2/8 2/8 - - -
Sa, 28.11. 7:00 - 0/8 0/8 - - -
Sa, 28.11. 1:00 - 0/8 0/8 - - -
Fr, 27.11. 19:00 - 0/8 0/8 - - -
Fr, 27.11. 13:00 - 0/8 0/8 - - -
Fr, 27.11. 7:00 1410 m 6/8 6/8 - - -
Fr, 27.11. 1:00 1440 m 0/8 0/8 - - -
Do, 26.11. 19:00 720 m 4/8 4/8 - - -
Ortszeit Bedeckungsgrad in Achtel und Wolkenuntergrenze
Sa, 28.11. 15:30 8(300m)
Sa, 28.11. 15:20 8(300m)
Sa, 28.11. 15:10 7(300m)
Sa, 28.11. 15:00 2(330m)
Sa, 28.11. 14:50 2(330m)
Sa, 28.11. 14:40 keine Wolken
Sa, 28.11. 14:30 1(240m)
Sa, 28.11. 14:00 6(270m)
Sa, 28.11. 13:30 7(210m)
Sa, 28.11. 13:00 2(240m)
Sa, 28.11. 12:30 keine Wolken
Ortszeit Luftdruck NN (hPa) Tendenz (hPa in 3 Std.)
Sa, 28.11. 13:00 1025 + 0,2
Sa, 28.11. 7:00 1024 + 0,4
Sa, 28.11. 1:00 1023 + 0,3
Fr, 27.11. 19:00 1023 + 0,4
Fr, 27.11. 13:00 1022 0,0
Fr, 27.11. 7:00 1021 + 0,4
Fr, 27.11. 1:00 1021 + 0,4
Do, 26.11. 19:00 1020 + 0,7
Ortszeit Luftdruck NN (hPa) Tendenz (hPa in 3 Std.)
Sa, 28.11. 15:30 1026 + 0,6
Sa, 28.11. 15:20 1026 keine Meldung
Sa, 28.11. 15:10 1026 keine Meldung
Sa, 28.11. 15:00 1026 + 0,3
Sa, 28.11. 14:50 1026 keine Meldung
Sa, 28.11. 14:40 1026 keine Meldung
Sa, 28.11. 14:30 1026 0,0
Sa, 28.11. 14:00 1026 + 0,1
Sa, 28.11. 13:30 1026 + 0,2
Sa, 28.11. 13:00 1025 + 0,2
Sa, 28.11. 12:30 1025 + 0,5
Ortszeit Schneehöhe (cm)
Sa, 28.11. 13:00 0
Sa, 28.11. 7:00 0
Sa, 28.11. 1:00 0
Fr, 27.11. 19:00 0
Fr, 27.11. 13:00 0
Fr, 27.11. 7:00 0
Fr, 27.11. 1:00 0
Do, 26.11. 19:00 0
Ortszeit Schneehöhe (cm)
Sa, 28.11. 15:30 0
Sa, 28.11. 15:20 0
Sa, 28.11. 15:10 0
Sa, 28.11. 15:00 0
Sa, 28.11. 14:50 0
Sa, 28.11. 14:40 0
Sa, 28.11. 14:30 0
Sa, 28.11. 14:00 0
Sa, 28.11. 13:30 0
Sa, 28.11. 13:00 0
Sa, 28.11. 12:30 0
Link zu dieser Seite / Seite empfehlen

Das Wetter in ...